Terminal Aerodrome Forecast
Issued by NWS Wilmington, NC

Home | Current Version | Previous Version | Text Only | Print | Product List | Glossary On
Versions: 1 2 3 4 5 6 7 8 9 10 11 12
000
FTUS42 KILM 260520
TAFILM
TAF
KILM 260520Z 2606/2706 20007KT P6SM SCT080 BKN300
     FM261200 23006KT P6SM BKN300
     FM261700 20008G16KT P6SM FEW050 BKN250
     FM262300 21008KT P6SM SCT250=

USA.gov is the U.S. government's official web portal to all federal, state and local government web resources and services.